sensor_id;sensor_type;location;lat;lon;timestamp;temperature;humidity
42973;DHT22;28610;51.214;6.962;2022-07-29T00:00:58;20.00;47.90
42973;DHT22;28610;51.214;6.962;2022-07-29T00:03:44;20.00;48.00
42973;DHT22;28610;51.214;6.962;2022-07-29T00:06:30;19.90;48.10
42973;DHT22;28610;51.214;6.962;2022-07-29T00:09:15;19.90;48.50
42973;DHT22;28610;51.214;6.962;2022-07-29T00:12:01;19.90;48.70
42973;DHT22;28610;51.214;6.962;2022-07-29T00:14:46;19.90;49.20
42973;DHT22;28610;51.214;6.962;2022-07-29T00:17:32;19.80;49.10
42973;DHT22;28610;51.214;6.962;2022-07-29T00:20:19;19.80;48.80
42973;DHT22;28610;51.214;6.962;2022-07-29T00:23:04;19.80;49.40
42973;DHT22;28610;51.214;6.962;2022-07-29T00:25:50;19.70;49.60
42973;DHT22;28610;51.214;6.962;2022-07-29T00:28:36;19.70;49.60
42973;DHT22;28610;51.214;6.962;2022-07-29T00:31:21;19.70;49.50
42973;DHT22;28610;51.214;6.962;2022-07-29T00:34:06;19.70;49.70
42973;DHT22;28610;51.214;6.962;2022-07-29T00:37:13;19.60;49.80
42973;DHT22;28610;51.214;6.962;2022-07-29T00:39:58;19.60;50.10
42973;DHT22;28610;51.214;6.962;2022-07-29T00:42:45;19.60;50.10
42973;DHT22;28610;51.214;6.962;2022-07-29T00:45:31;19.50;50.10
42973;DHT22;28610;51.214;6.962;2022-07-29T00:48:16;19.40;50.30
42973;DHT22;28610;51.214;6.962;2022-07-29T00:51:03;19.40;50.50
42973;DHT22;28610;51.214;6.962;2022-07-29T00:53:50;19.40;50.40
42973;DHT22;28610;51.214;6.962;2022-07-29T00:56:36;19.40;50.50
42973;DHT22;28610;51.214;6.962;2022-07-29T00:59:21;19.40;50.50
42973;DHT22;28610;51.214;6.962;2022-07-29T01:02:07;19.50;50.50
42973;DHT22;28610;51.214;6.962;2022-07-29T01:04:53;19.40;50.30
42973;DHT22;28610;51.214;6.962;2022-07-29T01:07:39;19.40;50.50
42973;DHT22;28610;51.214;6.962;2022-07-29T01:10:27;19.30;50.60
42973;DHT22;28610;51.214;6.962;2022-07-29T01:13:14;19.40;50.80
42973;DHT22;28610;51.214;6.962;2022-07-29T01:16:06;19.40;50.90
42973;DHT22;28610;51.214;6.962;2022-07-29T01:18:56;19.40;50.70
42973;DHT22;28610;51.214;6.962;2022-07-29T01:21:51;19.40;50.80
42973;DHT22;28610;51.214;6.962;2022-07-29T01:24:51;19.40;51.80
42973;DHT22;28610;51.214;6.962;2022-07-29T01:27:56;19.40;50.90
42973;DHT22;28610;51.214;6.962;2022-07-29T01:30:49;19.30;50.90
42973;DHT22;28610;51.214;6.962;2022-07-29T01:33:40;19.30;50.90
42973;DHT22;28610;51.214;6.962;2022-07-29T01:36:43;19.30;50.90
42973;DHT22;28610;51.214;6.962;2022-07-29T01:39:31;19.30;51.20
42973;DHT22;28610;51.214;6.962;2022-07-29T01:42:24;19.30;51.30
42973;DHT22;28610;51.214;6.962;2022-07-29T01:45:15;19.30;51.40
42973;DHT22;28610;51.214;6.962;2022-07-29T01:48:12;19.20;51.60
42973;DHT22;28610;51.214;6.962;2022-07-29T01:51:04;19.20;51.60
42973;DHT22;28610;51.214;6.962;2022-07-29T01:53:55;19.20;51.70
42973;DHT22;28610;51.214;6.962;2022-07-29T01:56:44;19.20;51.60
42973;DHT22;28610;51.214;6.962;2022-07-29T01:59:30;19.20;52.00
42973;DHT22;28610;51.214;6.962;2022-07-29T02:02:19;19.20;52.10
42973;DHT22;28610;51.214;6.962;2022-07-29T02:05:08;19.20;52.00
42973;DHT22;28610;51.214;6.962;2022-07-29T02:07:55;19.20;51.90
42973;DHT22;28610;51.214;6.962;2022-07-29T02:10:43;19.20;52.20
42973;DHT22;28610;51.214;6.962;2022-07-29T02:13:31;19.20;52.00
42973;DHT22;28610;51.214;6.962;2022-07-29T02:16:19;19.20;52.10
42973;DHT22;28610;51.214;6.962;2022-07-29T02:19:07;19.20;52.00
42973;DHT22;28610;51.214;6.962;2022-07-29T02:21:55;19.20;52.20
42973;DHT22;28610;51.214;6.962;2022-07-29T02:24:42;19.30;52.60
42973;DHT22;28610;51.214;6.962;2022-07-29T02:27:29;19.30;52.60
42973;DHT22;28610;51.214;6.962;2022-07-29T02:30:15;19.30;52.60
42973;DHT22;28610;51.214;6.962;2022-07-29T02:33:01;19.30;53.00
42973;DHT22;28610;51.214;6.962;2022-07-29T02:35:47;19.30;53.00
42973;DHT22;28610;51.214;6.962;2022-07-29T02:38:35;19.30;52.70
42973;DHT22;28610;51.214;6.962;2022-07-29T02:41:43;19.20;53.00
42973;DHT22;28610;51.214;6.962;2022-07-29T02:44:29;19.20;53.30
42973;DHT22;28610;51.214;6.962;2022-07-29T02:47:19;19.20;53.50
42973;DHT22;28610;51.214;6.962;2022-07-29T02:50:08;19.20;54.30
42973;DHT22;28610;51.214;6.962;2022-07-29T02:52:58;19.10;54.40
42973;DHT22;28610;51.214;6.962;2022-07-29T02:55:51;19.00;54.70
42973;DHT22;28610;51.214;6.962;2022-07-29T02:58:42;19.00;54.70
42973;DHT22;28610;51.214;6.962;2022-07-29T03:01:31;19.00;55.10
42973;DHT22;28610;51.214;6.962;2022-07-29T03:04:19;19.00;55.10
42973;DHT22;28610;51.214;6.962;2022-07-29T03:07:05;19.00;54.90
42973;DHT22;28610;51.214;6.962;2022-07-29T03:09:52;19.00;54.70
42973;DHT22;28610;51.214;6.962;2022-07-29T03:12:40;19.00;55.50
42973;DHT22;28610;51.214;6.962;2022-07-29T03:15:26;19.10;54.80
42973;DHT22;28610;51.214;6.962;2022-07-29T03:18:12;19.10;55.00
42973;DHT22;28610;51.214;6.962;2022-07-29T03:20:58;19.10;54.80
42973;DHT22;28610;51.214;6.962;2022-07-29T03:23:44;19.10;54.20
42973;DHT22;28610;51.214;6.962;2022-07-29T03:26:30;19.00;54.60
42973;DHT22;28610;51.214;6.962;2022-07-29T03:29:16;19.00;54.60
42973;DHT22;28610;51.214;6.962;2022-07-29T03:32:03;18.90;54.70
42973;DHT22;28610;51.214;6.962;2022-07-29T03:34:49;18.90;55.10
42973;DHT22;28610;51.214;6.962;2022-07-29T03:37:34;18.70;55.00
42973;DHT22;28610;51.214;6.962;2022-07-29T03:40:24;18.70;55.00
42973;DHT22;28610;51.214;6.962;2022-07-29T03:43:11;18.70;55.50
42973;DHT22;28610;51.214;6.962;2022-07-29T03:46:00;18.70;55.20
42973;DHT22;28610;51.214;6.962;2022-07-29T03:48:48;18.60;55.00
42973;DHT22;28610;51.214;6.962;2022-07-29T03:51:35;18.60;55.00
42973;DHT22;28610;51.214;6.962;2022-07-29T03:54:21;18.50;55.40
42973;DHT22;28610;51.214;6.962;2022-07-29T03:57:07;18.50;55.20
42973;DHT22;28610;51.214;6.962;2022-07-29T03:59:55;18.60;55.00
42973;DHT22;28610;51.214;6.962;2022-07-29T04:02:43;18.60;55.20
42973;DHT22;28610;51.214;6.962;2022-07-29T04:05:32;18.50;55.50
42973;DHT22;28610;51.214;6.962;2022-07-29T04:08:17;18.40;55.60
42973;DHT22;28610;51.214;6.962;2022-07-29T04:11:03;18.40;55.80
42973;DHT22;28610;51.214;6.962;2022-07-29T04:13:49;18.30;56.40
42973;DHT22;28610;51.214;6.962;2022-07-29T04:16:34;18.30;56.40
42973;DHT22;28610;51.214;6.962;2022-07-29T04:19:21;18.10;56.90
42973;DHT22;28610;51.214;6.962;2022-07-29T04:22:07;18.20;57.30
42973;DHT22;28610;51.214;6.962;2022-07-29T04:24:52;18.20;57.60
42973;DHT22;28610;51.214;6.962;2022-07-29T04:27:38;18.10;57.70
42973;DHT22;28610;51.214;6.962;2022-07-29T04:30:43;18.10;57.80
42973;DHT22;28610;51.214;6.962;2022-07-29T04:33:29;18.00;58.80
42973;DHT22;28610;51.214;6.962;2022-07-29T04:36:16;18.10;58.90
42973;DHT22;28610;51.214;6.962;2022-07-29T04:39:01;18.20;58.80
42973;DHT22;28610;51.214;6.962;2022-07-29T04:41:47;18.20;58.10
42973;DHT22;28610;51.214;6.962;2022-07-29T04:44:34;18.20;58.30
42973;DHT22;28610;51.214;6.962;2022-07-29T04:47:19;18.20;58.30
42973;DHT22;28610;51.214;6.962;2022-07-29T04:50:06;18.20;58.50
42973;DHT22;28610;51.214;6.962;2022-07-29T04:52:52;18.10;58.50
42973;DHT22;28610;51.214;6.962;2022-07-29T04:55:38;18.10;58.10
42973;DHT22;28610;51.214;6.962;2022-07-29T04:58:23;18.10;58.70
42973;DHT22;28610;51.214;6.962;2022-07-29T05:01:09;18.10;58.60
42973;DHT22;28610;51.214;6.962;2022-07-29T05:03:54;18.10;58.50
42973;DHT22;28610;51.214;6.962;2022-07-29T05:06:40;18.10;59.00
42973;DHT22;28610;51.214;6.962;2022-07-29T05:09:26;18.20;58.40
42973;DHT22;28610;51.214;6.962;2022-07-29T05:12:12;18.10;58.60
42973;DHT22;28610;51.214;6.962;2022-07-29T05:14:58;18.00;59.10
42973;DHT22;28610;51.214;6.962;2022-07-29T05:17:43;18.00;59.20
42973;DHT22;28610;51.214;6.962;2022-07-29T05:20:29;18.00;59.40
42973;DHT22;28610;51.214;6.962;2022-07-29T05:23:15;18.00;59.70
42973;DHT22;28610;51.214;6.962;2022-07-29T05:26:02;18.00;59.50
42973;DHT22;28610;51.214;6.962;2022-07-29T05:28:47;18.20;59.70
42973;DHT22;28610;51.214;6.962;2022-07-29T05:31:32;18.20;58.80
42973;DHT22;28610;51.214;6.962;2022-07-29T05:34:18;18.20;59.20
42973;DHT22;28610;51.214;6.962;2022-07-29T05:37:04;18.20;58.60
42973;DHT22;28610;51.214;6.962;2022-07-29T05:39:50;18.30;58.90
42973;DHT22;28610;51.214;6.962;2022-07-29T05:42:36;18.40;58.20
42973;DHT22;28610;51.214;6.962;2022-07-29T05:45:22;18.50;58.50
42973;DHT22;28610;51.214;6.962;2022-07-29T05:48:08;18.60;58.20
42973;DHT22;28610;51.214;6.962;2022-07-29T05:50:54;18.60;58.20
42973;DHT22;28610;51.214;6.962;2022-07-29T05:53:39;18.50;57.90
42973;DHT22;28610;51.214;6.962;2022-07-29T05:56:25;18.50;58.60
42973;DHT22;28610;51.214;6.962;2022-07-29T05:59:11;18.40;58.70
42973;DHT22;28610;51.214;6.962;2022-07-29T06:01:57;18.50;58.10
42973;DHT22;28610;51.214;6.962;2022-07-29T06:04:43;18.40;58.60
42973;DHT22;28610;51.214;6.962;2022-07-29T06:07:28;18.50;58.60
42973;DHT22;28610;51.214;6.962;2022-07-29T06:10:14;18.80;57.90
42973;DHT22;28610;51.214;6.962;2022-07-29T06:13:00;19.10;56.70
42973;DHT22;28610;51.214;6.962;2022-07-29T06:15:46;19.10;56.50
42973;DHT22;28610;51.214;6.962;2022-07-29T06:18:32;19.20;55.50
42973;DHT22;28610;51.214;6.962;2022-07-29T06:21:17;19.20;55.90
42973;DHT22;28610;51.214;6.962;2022-07-29T06:24:04;19.30;55.90
42973;DHT22;28610;51.214;6.962;2022-07-29T06:26:49;19.20;55.70
42973;DHT22;28610;51.214;6.962;2022-07-29T06:29:34;19.20;56.10
42973;DHT22;28610;51.214;6.962;2022-07-29T06:32:21;19.30;55.40
42973;DHT22;28610;51.214;6.962;2022-07-29T06:35:07;19.30;55.50
42973;DHT22;28610;51.214;6.962;2022-07-29T06:37:53;19.30;55.70
42973;DHT22;28610;51.214;6.962;2022-07-29T06:40:41;19.40;56.70
42973;DHT22;28610;51.214;6.962;2022-07-29T06:43:45;19.40;55.90
42973;DHT22;28610;51.214;6.962;2022-07-29T06:46:30;19.30;56.10
42973;DHT22;28610;51.214;6.962;2022-07-29T06:49:17;19.40;56.40
42973;DHT22;28610;51.214;6.962;2022-07-29T06:52:03;19.40;56.30
42973;DHT22;28610;51.214;6.962;2022-07-29T06:54:48;19.40;56.70
42973;DHT22;28610;51.214;6.962;2022-07-29T06:57:34;19.40;56.40
42973;DHT22;28610;51.214;6.962;2022-07-29T07:00:19;19.50;56.90
42973;DHT22;28610;51.214;6.962;2022-07-29T07:03:05;19.50;57.10
42973;DHT22;28610;51.214;6.962;2022-07-29T07:05:52;19.60;56.10
42973;DHT22;28610;51.214;6.962;2022-07-29T07:08:37;19.50;56.50
42973;DHT22;28610;51.214;6.962;2022-07-29T07:11:23;19.50;56.00
42973;DHT22;28610;51.214;6.962;2022-07-29T07:14:08;19.50;56.40
42973;DHT22;28610;51.214;6.962;2022-07-29T07:16:54;19.50;56.30
42973;DHT22;28610;51.214;6.962;2022-07-29T07:19:39;19.60;56.70
42973;DHT22;28610;51.214;6.962;2022-07-29T07:22:26;19.70;55.70
42973;DHT22;28610;51.214;6.962;2022-07-29T07:25:12;19.60;55.70
42973;DHT22;28610;51.214;6.962;2022-07-29T07:27:57;19.60;55.40
42973;DHT22;28610;51.214;6.962;2022-07-29T07:30:44;19.70;55.80
42973;DHT22;28610;51.214;6.962;2022-07-29T07:33:29;19.60;56.20
42973;DHT22;28610;51.214;6.962;2022-07-29T07:36:15;19.70;56.90
42973;DHT22;28610;51.214;6.962;2022-07-29T07:39:02;19.50;61.60
42973;DHT22;28610;51.214;6.962;2022-07-29T07:41:49;19.40;69.40
42973;DHT22;28610;51.214;6.962;2022-07-29T07:44:34;19.20;68.90
42973;DHT22;28610;51.214;6.962;2022-07-29T07:47:19;19.20;71.30
42973;DHT22;28610;51.214;6.962;2022-07-29T07:50:07;19.10;72.90
42973;DHT22;28610;51.214;6.962;2022-07-29T07:52:54;19.10;75.70
42973;DHT22;28610;51.214;6.962;2022-07-29T07:55:43;19.00;74.70
42973;DHT22;28610;51.214;6.962;2022-07-29T07:58:29;18.90;77.40
42973;DHT22;28610;51.214;6.962;2022-07-29T08:01:14;18.80;77.60
42973;DHT22;28610;51.214;6.962;2022-07-29T08:04:03;18.90;75.70
42973;DHT22;28610;51.214;6.962;2022-07-29T08:06:48;18.90;76.60
42973;DHT22;28610;51.214;6.962;2022-07-29T08:09:35;18.70;81.20
42973;DHT22;28610;51.214;6.962;2022-07-29T08:12:22;18.60;78.60
42973;DHT22;28610;51.214;6.962;2022-07-29T08:15:08;18.50;79.50
42973;DHT22;28610;51.214;6.962;2022-07-29T08:17:53;18.40;81.40
42973;DHT22;28610;51.214;6.962;2022-07-29T08:20:39;18.40;83.40
42973;DHT22;28610;51.214;6.962;2022-07-29T08:23:25;18.60;80.40
42973;DHT22;28610;51.214;6.962;2022-07-29T08:26:19;18.50;81.30
42973;DHT22;28610;51.214;6.962;2022-07-29T08:29:07;18.30;80.30
42973;DHT22;28610;51.214;6.962;2022-07-29T08:31:53;18.20;83.30
42973;DHT22;28610;51.214;6.962;2022-07-29T08:34:38;18.30;86.10
42973;DHT22;28610;51.214;6.962;2022-07-29T08:37:24;18.30;84.50
42973;DHT22;28610;51.214;6.962;2022-07-29T08:40:10;18.30;85.60
42973;DHT22;28610;51.214;6.962;2022-07-29T08:42:55;18.20;87.90
42973;DHT22;28610;51.214;6.962;2022-07-29T08:45:44;18.40;89.00
42973;DHT22;28610;51.214;6.962;2022-07-29T08:48:31;18.40;86.70
42973;DHT22;28610;51.214;6.962;2022-07-29T08:51:18;18.40;86.10
42973;DHT22;28610;51.214;6.962;2022-07-29T08:54:04;18.30;85.30
42973;DHT22;28610;51.214;6.962;2022-07-29T08:56:51;18.30;84.00
42973;DHT22;28610;51.214;6.962;2022-07-29T08:59:37;18.30;86.50
42973;DHT22;28610;51.214;6.962;2022-07-29T09:02:28;18.30;84.20
42973;DHT22;28610;51.214;6.962;2022-07-29T09:05:14;18.40;84.60
42973;DHT22;28610;51.214;6.962;2022-07-29T09:08:01;18.40;80.70
42973;DHT22;28610;51.214;6.962;2022-07-29T09:10:46;18.40;78.20
42973;DHT22;28610;51.214;6.962;2022-07-29T09:13:32;18.50;78.40
42973;DHT22;28610;51.214;6.962;2022-07-29T09:16:18;18.60;78.20
42973;DHT22;28610;51.214;6.962;2022-07-29T09:19:19;18.50;75.20
42973;DHT22;28610;51.214;6.962;2022-07-29T09:22:06;18.60;77.00
42973;DHT22;28610;51.214;6.962;2022-07-29T09:24:53;18.60;78.10
42973;DHT22;28610;51.214;6.962;2022-07-29T09:27:39;18.60;77.60
42973;DHT22;28610;51.214;6.962;2022-07-29T09:30:25;18.70;79.80
42973;DHT22;28610;51.214;6.962;2022-07-29T09:33:10;18.70;77.60
42973;DHT22;28610;51.214;6.962;2022-07-29T09:36:02;18.80;80.00
42973;DHT22;28610;51.214;6.962;2022-07-29T09:38:57;18.90;80.90
42973;DHT22;28610;51.214;6.962;2022-07-29T09:41:48;19.00;78.30
42973;DHT22;28610;51.214;6.962;2022-07-29T09:44:44;19.00;77.00
42973;DHT22;28610;51.214;6.962;2022-07-29T09:47:41;19.00;77.20
42973;DHT22;28610;51.214;6.962;2022-07-29T09:50:36;19.10;78.80
42973;DHT22;28610;51.214;6.962;2022-07-29T09:53:34;19.20;82.30
42973;DHT22;28610;51.214;6.962;2022-07-29T09:56:20;19.20;79.30
42973;DHT22;28610;51.214;6.962;2022-07-29T09:59:22;19.20;80.30
42973;DHT22;28610;51.214;6.962;2022-07-29T10:02:12;19.20;77.40
42973;DHT22;28610;51.214;6.962;2022-07-29T10:04:59;19.20;76.00
42973;DHT22;28610;51.214;6.962;2022-07-29T10:07:46;19.20;78.40
42973;DHT22;28610;51.214;6.962;2022-07-29T10:10:34;19.30;77.40
42973;DHT22;28610;51.214;6.962;2022-07-29T10:13:20;19.30;78.80
42973;DHT22;28610;51.214;6.962;2022-07-29T10:16:06;19.20;81.40
42973;DHT22;28610;51.214;6.962;2022-07-29T10:18:52;19.30;78.50
42973;DHT22;28610;51.214;6.962;2022-07-29T10:21:37;19.30;76.50
42973;DHT22;28610;51.214;6.962;2022-07-29T10:24:28;19.30;77.00
42973;DHT22;28610;51.214;6.962;2022-07-29T10:27:15;19.40;78.90
42973;DHT22;28610;51.214;6.962;2022-07-29T10:30:01;19.30;74.70
42973;DHT22;28610;51.214;6.962;2022-07-29T10:32:58;19.50;74.00
42973;DHT22;28610;51.214;6.962;2022-07-29T10:35:59;19.50;72.50
42973;DHT22;28610;51.214;6.962;2022-07-29T10:38:55;19.70;70.70
42973;DHT22;28610;51.214;6.962;2022-07-29T10:42:02;19.70;71.90
42973;DHT22;28610;51.214;6.962;2022-07-29T10:44:52;19.80;70.20
42973;DHT22;28610;51.214;6.962;2022-07-29T10:47:37;20.00;69.80
42973;DHT22;28610;51.214;6.962;2022-07-29T10:50:23;20.10;68.60
42973;DHT22;28610;51.214;6.962;2022-07-29T10:53:09;20.10;68.00
42973;DHT22;28610;51.214;6.962;2022-07-29T10:55:55;20.40;71.90
42973;DHT22;28610;51.214;6.962;2022-07-29T10:58:40;20.40;71.10
42973;DHT22;28610;51.214;6.962;2022-07-29T11:01:30;20.50;75.60
42973;DHT22;28610;51.214;6.962;2022-07-29T11:04:16;20.60;74.20
42973;DHT22;28610;51.214;6.962;2022-07-29T11:07:08;20.60;73.30
42973;DHT22;28610;51.214;6.962;2022-07-29T11:10:22;20.80;74.40
42973;DHT22;28610;51.214;6.962;2022-07-29T11:13:08;20.80;72.60
42973;DHT22;28610;51.214;6.962;2022-07-29T11:15:54;20.80;73.30
42973;DHT22;28610;51.214;6.962;2022-07-29T11:22:00;21.20;71.40
42973;DHT22;28610;51.214;6.962;2022-07-29T11:25:15;21.40;68.70
42973;DHT22;28610;51.214;6.962;2022-07-29T11:28:10;21.70;66.90
42973;DHT22;28610;51.214;6.962;2022-07-29T11:30:58;21.90;65.60
42973;DHT22;28610;51.214;6.962;2022-07-29T11:33:44;22.00;66.20
42973;DHT22;28610;51.214;6.962;2022-07-29T11:36:29;22.40;65.70
42973;DHT22;28610;51.214;6.962;2022-07-29T11:39:29;22.30;62.00
42973;DHT22;28610;51.214;6.962;2022-07-29T11:42:40;22.70;62.70
42973;DHT22;28610;51.214;6.962;2022-07-29T11:45:31;22.60;61.20
42973;DHT22;28610;51.214;6.962;2022-07-29T11:48:29;23.10;60.00
42973;DHT22;28610;51.214;6.962;2022-07-29T11:51:15;23.40;58.40
42973;DHT22;28610;51.214;6.962;2022-07-29T11:54:02;23.20;58.60
42973;DHT22;28610;51.214;6.962;2022-07-29T11:56:49;23.30;58.80
42973;DHT22;28610;51.214;6.962;2022-07-29T11:59:38;23.40;57.50
42973;DHT22;28610;51.214;6.962;2022-07-29T12:02:38;23.40;56.50
42973;DHT22;28610;51.214;6.962;2022-07-29T12:05:37;23.40;57.30
42973;DHT22;28610;51.214;6.962;2022-07-29T12:08:23;23.60;57.20
42973;DHT22;28610;51.214;6.962;2022-07-29T12:11:15;23.80;54.30
42973;DHT22;28610;51.214;6.962;2022-07-29T12:14:02;23.90;55.00
42973;DHT22;28610;51.214;6.962;2022-07-29T12:16:48;23.80;52.10
42973;DHT22;28610;51.214;6.962;2022-07-29T12:19:42;24.20;51.50
42973;DHT22;28610;51.214;6.962;2022-07-29T12:22:28;24.00;51.80
42973;DHT22;28610;51.214;6.962;2022-07-29T12:25:14;24.20;51.90
42973;DHT22;28610;51.214;6.962;2022-07-29T12:28:02;24.40;53.90
42973;DHT22;28610;51.214;6.962;2022-07-29T12:30:50;24.60;49.20
42973;DHT22;28610;51.214;6.962;2022-07-29T12:33:36;24.40;48.20
42973;DHT22;28610;51.214;6.962;2022-07-29T12:36:22;24.40;44.90
42973;DHT22;28610;51.214;6.962;2022-07-29T12:39:07;24.40;44.50
42973;DHT22;28610;51.214;6.962;2022-07-29T12:41:53;24.70;43.60
42973;DHT22;28610;51.214;6.962;2022-07-29T12:44:49;24.60;43.00
42973;DHT22;28610;51.214;6.962;2022-07-29T12:47:51;24.40;43.10
42973;DHT22;28610;51.214;6.962;2022-07-29T12:50:51;24.70;44.00
42973;DHT22;28610;51.214;6.962;2022-07-29T12:53:38;24.90;43.30
42973;DHT22;28610;51.214;6.962;2022-07-29T12:56:23;24.80;41.90
42973;DHT22;28610;51.214;6.962;2022-07-29T12:59:17;24.80;41.00
42973;DHT22;28610;51.214;6.962;2022-07-29T13:02:02;25.10;43.10
42973;DHT22;28610;51.214;6.962;2022-07-29T13:04:57;25.00;44.40
42973;DHT22;28610;51.214;6.962;2022-07-29T13:07:42;25.10;44.20
42973;DHT22;28610;51.214;6.962;2022-07-29T13:10:28;25.20;45.20
42973;DHT22;28610;51.214;6.962;2022-07-29T13:13:15;25.00;45.40
42973;DHT22;28610;51.214;6.962;2022-07-29T13:16:07;25.20;47.30
42973;DHT22;28610;51.214;6.962;2022-07-29T13:19:07;25.20;45.90
42973;DHT22;28610;51.214;6.962;2022-07-29T13:21:54;25.10;45.80
42973;DHT22;28610;51.214;6.962;2022-07-29T13:24:47;24.90;44.20
42973;DHT22;28610;51.214;6.962;2022-07-29T13:27:35;24.90;45.30
42973;DHT22;28610;51.214;6.962;2022-07-29T13:30:22;24.70;46.30
42973;DHT22;28610;51.214;6.962;2022-07-29T13:33:07;25.10;46.60
42973;DHT22;28610;51.214;6.962;2022-07-29T13:35:53;25.20;45.80
42973;DHT22;28610;51.214;6.962;2022-07-29T13:38:39;25.20;44.60
42973;DHT22;28610;51.214;6.962;2022-07-29T13:41:25;25.30;43.60
42973;DHT22;28610;51.214;6.962;2022-07-29T13:44:11;25.60;44.60
42973;DHT22;28610;51.214;6.962;2022-07-29T13:46:56;25.60;42.10
42973;DHT22;28610;51.214;6.962;2022-07-29T13:49:43;25.50;41.10
42973;DHT22;28610;51.214;6.962;2022-07-29T13:52:29;25.30;40.00
42973;DHT22;28610;51.214;6.962;2022-07-29T13:55:15;25.30;41.50
42973;DHT22;28610;51.214;6.962;2022-07-29T13:58:01;25.40;41.50
42973;DHT22;28610;51.214;6.962;2022-07-29T14:00:47;25.30;41.60
42973;DHT22;28610;51.214;6.962;2022-07-29T14:03:32;25.20;42.30
42973;DHT22;28610;51.214;6.962;2022-07-29T14:06:18;25.30;42.80
42973;DHT22;28610;51.214;6.962;2022-07-29T14:09:04;25.40;41.80
42973;DHT22;28610;51.214;6.962;2022-07-29T14:11:51;25.60;41.50
42973;DHT22;28610;51.214;6.962;2022-07-29T14:14:36;25.50;41.20
42973;DHT22;28610;51.214;6.962;2022-07-29T14:17:22;25.50;42.70
42973;DHT22;28610;51.214;6.962;2022-07-29T14:20:08;25.50;42.70
42973;DHT22;28610;51.214;6.962;2022-07-29T14:22:54;25.70;42.50
42973;DHT22;28610;51.214;6.962;2022-07-29T14:25:39;25.50;40.90
42973;DHT22;28610;51.214;6.962;2022-07-29T14:28:26;25.20;41.20
42973;DHT22;28610;51.214;6.962;2022-07-29T14:31:11;25.40;42.20
42973;DHT22;28610;51.214;6.962;2022-07-29T14:33:57;25.20;42.50
42973;DHT22;28610;51.214;6.962;2022-07-29T14:36:42;25.30;41.80
42973;DHT22;28610;51.214;6.962;2022-07-29T14:39:28;25.40;42.30
42973;DHT22;28610;51.214;6.962;2022-07-29T14:42:14;25.40;42.80
42973;DHT22;28610;51.214;6.962;2022-07-29T14:45:00;25.50;43.50
42973;DHT22;28610;51.214;6.962;2022-07-29T14:47:46;25.50;42.80
42973;DHT22;28610;51.214;6.962;2022-07-29T14:50:33;25.40;42.60
42973;DHT22;28610;51.214;6.962;2022-07-29T14:53:18;25.50;42.70
42973;DHT22;28610;51.214;6.962;2022-07-29T14:56:04;25.50;43.40
42973;DHT22;28610;51.214;6.962;2022-07-29T14:58:49;25.60;43.60
42973;DHT22;28610;51.214;6.962;2022-07-29T15:01:36;25.70;43.00
42973;DHT22;28610;51.214;6.962;2022-07-29T15:04:21;25.40;42.50
42973;DHT22;28610;51.214;6.962;2022-07-29T15:07:07;25.50;43.40
42973;DHT22;28610;51.214;6.962;2022-07-29T15:09:52;25.50;44.60
42973;DHT22;28610;51.214;6.962;2022-07-29T15:12:38;25.40;44.60
42973;DHT22;28610;51.214;6.962;2022-07-29T15:15:24;25.50;45.00
42973;DHT22;28610;51.214;6.962;2022-07-29T15:18:11;25.40;44.30
42973;DHT22;28610;51.214;6.962;2022-07-29T15:20:57;25.30;44.70
42973;DHT22;28610;51.214;6.962;2022-07-29T15:23:44;25.20;44.40
42973;DHT22;28610;51.214;6.962;2022-07-29T15:26:30;25.20;45.40
42973;DHT22;28610;51.214;6.962;2022-07-29T15:29:15;25.20;45.50
42973;DHT22;28610;51.214;6.962;2022-07-29T15:32:01;25.20;45.30
42973;DHT22;28610;51.214;6.962;2022-07-29T15:34:48;25.00;44.50
42973;DHT22;28610;51.214;6.962;2022-07-29T15:37:33;25.20;46.70
42973;DHT22;28610;51.214;6.962;2022-07-29T15:40:19;25.10;45.00
42973;DHT22;28610;51.214;6.962;2022-07-29T15:43:04;25.10;43.80
42973;DHT22;28610;51.214;6.962;2022-07-29T15:45:50;25.00;44.60
42973;DHT22;28610;51.214;6.962;2022-07-29T15:48:49;25.00;44.40
42973;DHT22;28610;51.214;6.962;2022-07-29T15:51:36;25.00;44.40
42973;DHT22;28610;51.214;6.962;2022-07-29T15:54:22;25.00;45.10
42973;DHT22;28610;51.214;6.962;2022-07-29T15:57:07;25.20;45.20
42973;DHT22;28610;51.214;6.962;2022-07-29T15:59:53;25.10;43.60
42973;DHT22;28610;51.214;6.962;2022-07-29T16:02:38;25.10;43.40
42973;DHT22;28610;51.214;6.962;2022-07-29T16:05:24;25.10;42.70
42973;DHT22;28610;51.214;6.962;2022-07-29T16:08:10;25.00;44.10
42973;DHT22;28610;51.214;6.962;2022-07-29T16:10:56;25.00;43.60
42973;DHT22;28610;51.214;6.962;2022-07-29T16:13:41;25.00;44.10
42973;DHT22;28610;51.214;6.962;2022-07-29T16:16:27;25.00;44.40
42973;DHT22;28610;51.214;6.962;2022-07-29T16:19:12;25.20;44.60
42973;DHT22;28610;51.214;6.962;2022-07-29T16:21:58;25.10;43.60
42973;DHT22;28610;51.214;6.962;2022-07-29T16:24:44;25.00;42.00
42973;DHT22;28610;51.214;6.962;2022-07-29T16:27:30;24.80;42.70
42973;DHT22;28610;51.214;6.962;2022-07-29T16:30:15;24.60;42.90
42973;DHT22;28610;51.214;6.962;2022-07-29T16:33:01;24.60;43.40
42973;DHT22;28610;51.214;6.962;2022-07-29T16:35:46;24.60;43.80
42973;DHT22;28610;51.214;6.962;2022-07-29T16:38:32;24.50;44.00
42973;DHT22;28610;51.214;6.962;2022-07-29T16:41:19;24.50;45.20
42973;DHT22;28610;51.214;6.962;2022-07-29T16:44:04;24.60;44.50
42973;DHT22;28610;51.214;6.962;2022-07-29T16:46:49;24.50;44.40
42973;DHT22;28610;51.214;6.962;2022-07-29T16:49:35;24.40;43.50
42973;DHT22;28610;51.214;6.962;2022-07-29T16:52:21;24.40;44.00
42973;DHT22;28610;51.214;6.962;2022-07-29T16:55:07;24.30;44.50
42973;DHT22;28610;51.214;6.962;2022-07-29T16:57:53;24.30;43.70
42973;DHT22;28610;51.214;6.962;2022-07-29T17:00:39;24.30;44.00
42973;DHT22;28610;51.214;6.962;2022-07-29T17:03:24;24.30;43.50
42973;DHT22;28610;51.214;6.962;2022-07-29T17:06:10;24.20;43.00
42973;DHT22;28610;51.214;6.962;2022-07-29T17:08:55;24.10;43.90
42973;DHT22;28610;51.214;6.962;2022-07-29T17:11:41;24.20;43.70
42973;DHT22;28610;51.214;6.962;2022-07-29T17:14:29;24.20;43.70
42973;DHT22;28610;51.214;6.962;2022-07-29T17:17:15;24.20;43.00
42973;DHT22;28610;51.214;6.962;2022-07-29T17:20:00;24.00;42.60
42973;DHT22;28610;51.214;6.962;2022-07-29T17:22:46;24.00;43.60
42973;DHT22;28610;51.214;6.962;2022-07-29T17:25:31;23.90;43.50
42973;DHT22;28610;51.214;6.962;2022-07-29T17:28:17;23.90;43.50
42973;DHT22;28610;51.214;6.962;2022-07-29T17:31:04;24.00;43.20
42973;DHT22;28610;51.214;6.962;2022-07-29T17:33:50;23.90;42.10
42973;DHT22;28610;51.214;6.962;2022-07-29T17:36:35;23.90;42.50
42973;DHT22;28610;51.214;6.962;2022-07-29T17:39:21;23.80;43.00
42973;DHT22;28610;51.214;6.962;2022-07-29T17:42:07;23.80;42.90